Time;durP1;ratioP1;P1;durP2;ratioP2;P2;SDS_P1;SDS_P2;PMS_P1;PMS_P2;Temp;Humidity;BMP_temperature;BMP_pressure;BME280_temperature;BME280_humidity;BME280_pressure;Samples;Min_cycle;Max_cycle;Signal;HPM_P1;HPM_P2
2024/02/10 00:00:36;;;;;;;17.08;8.10;;;16.50;99.90;;;;;;5053112;28;20079;-76
2024/02/10 00:03:02;;;;;;;16.73;8.33;;;16.50;99.90;;;;;;5051801;28;20037;-75
2024/02/10 00:05:28;;;;;;;15.43;7.70;;;16.50;99.90;;;;;;5050650;28;20425;-77
2024/02/10 00:07:57;;;;;;;16.42;7.40;;;16.40;99.90;;;;;;5045371;28;20033;-78
2024/02/10 00:10:25;;;;;;;15.75;7.68;;;16.40;99.90;;;;;;5046658;28;20025;-77
2024/02/10 00:13:00;;;;;;;12.98;7.47;;;16.50;99.90;;;;;;5051353;28;20119;-76
2024/02/10 00:15:27;;;;;;;16.67;7.78;;;16.50;99.90;;;;;;5037058;28;20689;-75
2024/02/10 00:17:53;;;;;;;14.93;7.40;;;16.50;99.90;;;;;;5051110;28;20417;-76
2024/02/10 00:20:20;;;;;;;15.83;7.40;;;16.40;99.90;;;;;;5051368;28;20032;-76
2024/02/10 00:22:50;;;;;;;16.05;7.10;;;16.40;99.90;;;;;;5052676;28;20462;-75
2024/02/10 00:25:16;;;;;;;13.85;6.88;;;16.40;99.90;;;;;;5051000;28;20040;-75
2024/02/10 00:27:46;;;;;;;12.30;6.23;;;16.40;99.90;;;;;;5052183;28;20055;-76
2024/02/10 00:30:13;;;;;;;16.20;7.00;;;16.40;99.90;;;;;;5052289;28;20086;-76
2024/02/10 00:32:39;;;;;;;14.70;7.15;;;16.40;99.90;;;;;;5052237;28;20029;-76
2024/02/10 00:35:06;;;;;;;13.38;6.10;;;16.40;99.90;;;;;;5050915;28;20025;-75
2024/02/10 00:37:32;;;;;;;17.70;7.93;;;16.40;99.90;;;;;;5049339;28;20063;-75
2024/02/10 00:40:00;;;;;;;17.77;7.10;;;16.40;99.90;;;;;;5048801;28;20033;-76
2024/02/10 00:42:28;;;;;;;13.27;6.32;;;16.40;99.90;;;;;;5042490;28;20072;-75
2024/02/10 00:45:06;;;;;;;13.05;6.55;;;16.40;99.90;;;;;;5035699;28;20034;-76
2024/02/10 00:47:34;;;;;;;14.85;6.65;;;16.40;99.90;;;;;;5049163;28;20025;-76
2024/02/10 00:50:01;;;;;;;12.70;6.53;;;16.40;99.90;;;;;;5050359;28;20031;-76
2024/02/10 00:52:29;;;;;;;;;;;16.40;99.90;;;;;;5040571;28;20729;-75
2024/02/10 00:54:58;;;;;;;11.25;5.60;;;16.40;99.90;;;;;;5051794;28;19905;-75
2024/02/10 00:57:24;;;;;;;13.38;6.20;;;16.40;99.90;;;;;;5041845;28;20095;-75
2024/02/10 00:59:50;;;;;;;11.27;5.43;;;16.30;99.90;;;;;;5044293;28;20049;-75
2024/02/10 01:02:19;;;;;;;10.53;5.60;;;16.30;99.90;;;;;;5038276;28;20033;-75
2024/02/10 01:04:48;;;;;;;11.27;5.85;;;16.30;99.90;;;;;;5037187;28;20029;-75
2024/02/10 01:07:15;;;;;;;11.85;5.40;;;16.30;99.90;;;;;;5046330;28;20032;-75
2024/02/10 01:09:44;;;;;;;13.93;5.60;;;16.30;99.90;;;;;;5041034;28;20047;-75
2024/02/10 01:12:09;;;;;;;9.77;5.38;;;16.30;99.90;;;;;;5047586;28;20029;-75
2024/02/10 01:14:38;;;;;;;12.43;4.87;;;16.30;99.90;;;;;;5049469;28;20039;-77
2024/02/10 01:17:04;;;;;;;10.07;5.25;;;16.30;99.90;;;;;;5051660;28;20052;-75
2024/02/10 01:19:30;;;;;;;11.13;5.05;;;16.30;99.90;;;;;;5043304;28;20670;-75
2024/02/10 01:21:56;;;;;;;8.77;4.77;;;16.30;99.90;;;;;;5043346;28;20041;-75
2024/02/10 01:24:27;;;;;;;10.68;5.25;;;16.30;99.90;;;;;;5040805;28;20037;-75
2024/02/10 01:26:54;;;;;;;8.75;4.90;;;16.30;99.90;;;;;;5051512;28;20032;-75
2024/02/10 01:29:20;;;;;;;9.45;4.75;;;16.30;99.90;;;;;;5040696;28;20430;-75
2024/02/10 01:31:46;;;;;;;10.82;5.00;;;16.20;99.90;;;;;;5042193;28;20467;-75
2024/02/10 01:34:15;;;;;;;8.25;4.50;;;16.20;99.90;;;;;;5033952;28;20120;-75
2024/02/10 01:36:41;;;;;;;7.10;4.13;;;16.20;99.90;;;;;;5045569;28;20048;-75
2024/02/10 01:39:07;;;;;;;8.10;4.53;;;16.20;99.90;;;;;;5034754;28;20044;-75
2024/02/10 01:41:33;;;;;;;8.77;4.83;;;16.30;99.90;;;;;;5045035;28;20045;-75
2024/02/10 01:43:59;;;;;;;11.77;5.00;;;16.20;99.90;;;;;;5044145;28;20737;-75
2024/02/10 01:46:25;;;;;;;;;;;16.20;99.90;;;;;;5049779;28;20056;-75
2024/02/10 01:48:55;;;;;;;11.55;4.25;;;16.20;99.90;;;;;;5045949;28;19964;-75
2024/02/10 01:51:23;;;;;;;6.75;4.28;;;16.20;99.90;;;;;;5041837;28;20032;-77
2024/02/10 01:53:51;;;;;;;7.85;3.90;;;16.20;99.90;;;;;;5049663;28;20017;-75
2024/02/10 01:56:18;;;;;;;9.15;4.32;;;16.20;99.90;;;;;;5039543;28;20029;-75
2024/02/10 01:58:45;;;;;;;8.10;4.05;;;16.20;99.90;;;;;;5042446;28;20025;-75
2024/02/10 02:01:15;;;;;;;8.63;4.13;;;16.20;99.90;;;;;;5043911;28;20043;-75
2024/02/10 02:03:43;;;;;;;10.95;5.28;;;16.20;99.90;;;;;;5049505;28;20501;-75
2024/02/10 02:06:10;;;;;;;9.85;4.50;;;16.20;99.90;;;;;;5047750;28;20060;-75
2024/02/10 02:08:37;;;;;;;9.15;4.75;;;16.10;99.90;;;;;;5040903;28;20035;-75
2024/02/10 02:11:03;;;;;;;6.95;4.22;;;16.10;99.90;;;;;;5042388;28;20454;-77
2024/02/10 02:13:29;;;;;;;8.70;3.87;;;16.10;99.90;;;;;;5049138;28;20112;-75
2024/02/10 02:15:58;;;;;;;6.43;3.92;;;16.10;99.90;;;;;;5039432;28;20312;-75
2024/02/10 02:18:24;;;;;;;7.15;3.53;;;16.10;99.90;;;;;;5047950;28;20025;-75
2024/02/10 02:20:50;;;;;;;8.17;3.97;;;16.10;99.90;;;;;;5038466;28;20752;-75
2024/02/10 02:23:19;;;;;;;8.43;4.00;;;16.10;99.90;;;;;;5049994;28;20282;-75
2024/02/10 02:25:49;;;;;;;6.97;3.50;;;16.10;99.90;;;;;;5045065;28;20037;-76
2024/02/10 02:28:16;;;;;;;6.35;3.30;;;16.10;99.90;;;;;;5047607;28;20041;-75
2024/02/10 02:30:42;;;;;;;8.18;3.60;;;16.10;99.90;;;;;;5048636;28;20055;-75
2024/02/10 02:33:10;;;;;;;6.30;3.37;;;16.10;99.90;;;;;;5046202;28;20470;-75
2024/02/10 02:35:45;;;;;;;9.80;4.20;;;16.10;99.90;;;;;;5041616;28;20071;-76
2024/02/10 02:38:14;;;;;;;7.57;3.75;;;16.10;99.90;;;;;;5040761;28;20033;-75
2024/02/10 02:40:42;;;;;;;8.82;3.67;;;16.10;99.90;;;;;;5044138;28;20025;-74
2024/02/10 02:43:12;;;;;;;6.40;3.13;;;16.10;99.90;;;;;;5048189;28;20471;-75
2024/02/10 02:45:38;;;;;;;5.55;3.00;;;16.10;99.90;;;;;;5043789;28;20119;-75
2024/02/10 02:48:06;;;;;;;7.75;3.15;;;16.00;99.90;;;;;;5048405;28;20036;-75
2024/02/10 02:50:34;;;;;;;7.30;3.75;;;16.10;99.90;;;;;;5051089;28;20032;-75
2024/02/10 02:53:02;;;;;;;6.35;3.20;;;16.10;99.90;;;;;;5042078;28;20394;-76
2024/02/10 02:55:28;;;;;;;7.55;3.88;;;16.00;99.90;;;;;;5050217;28;20025;-75
2024/02/10 02:57:54;;;;;;;4.47;3.22;;;16.00;99.90;;;;;;5040348;28;20033;-75
2024/02/10 03:00:20;;;;;;;6.18;3.15;;;16.00;99.90;;;;;;5051334;28;20075;-76
2024/02/10 03:02:46;;;;;;;7.53;3.23;;;16.00;99.90;;;;;;5040518;28;20042;-76
2024/02/10 03:05:12;;;;;;;6.25;3.20;;;16.00;99.90;;;;;;5042093;28;20033;-75
2024/02/10 03:07:45;;;;;;;5.55;3.15;;;16.00;99.90;;;;;;5050762;28;20021;-75
2024/02/10 03:10:15;;;;;;;7.40;3.40;;;16.00;99.90;;;;;;5038569;28;20036;-74
2024/02/10 03:12:42;;;;;;;5.50;2.97;;;16.00;99.90;;;;;;5043309;28;20024;-75
2024/02/10 03:15:09;;;;;;;4.55;2.83;;;16.00;99.90;;;;;;5044911;28;20037;-75
2024/02/10 03:17:39;;;;;;;7.97;3.10;;;16.00;99.90;;;;;;5048236;28;20052;-75
2024/02/10 03:20:05;;;;;;;4.15;2.60;;;16.00;99.90;;;;;;5045272;28;20064;-75
2024/02/10 03:22:32;;;;;;;4.68;2.78;;;16.00;99.90;;;;;;5045371;28;20033;-74
2024/02/10 03:24:57;;;;;;;6.43;2.97;;;16.00;99.90;;;;;;5041569;28;20064;-75
2024/02/10 03:27:23;;;;;;;5.03;2.10;;;15.90;99.90;;;;;;5048467;28;20053;-74
2024/02/10 03:29:50;;;;;;;5.10;2.70;;;16.00;99.90;;;;;;5048690;28;20025;-75
2024/02/10 03:32:15;;;;;;;5.47;3.13;;;15.90;99.90;;;;;;5043639;28;20044;-75
2024/02/10 03:34:42;;;;;;;3.73;2.40;;;16.00;99.90;;;;;;5050270;28;20508;-75
2024/02/10 03:37:09;;;;;;;5.25;2.97;;;15.90;99.90;;;;;;5047489;28;20112;-75
2024/02/10 03:39:36;;;;;;;6.13;2.88;;;15.90;99.90;;;;;;5042913;28;20032;-76
2024/02/10 03:42:04;;;;;;;3.90;2.60;;;15.90;99.90;;;;;;5047759;28;20387;-75
2024/02/10 03:44:30;;;;;;;5.43;3.08;;;15.90;99.90;;;;;;5047917;28;20071;-75
2024/02/10 03:46:57;;;;;;;5.03;2.22;;;15.90;99.90;;;;;;5051733;28;20025;-75
2024/02/10 03:49:23;;;;;;;5.53;2.65;;;15.90;99.90;;;;;;5034949;28;20084;-75
2024/02/10 03:51:48;;;;;;;4.10;2.60;;;15.90;99.90;;;;;;5034547;28;20487;-75
2024/02/10 03:54:14;;;;;;;6.20;2.80;;;15.90;99.90;;;;;;5041346;28;20071;-75
2024/02/10 03:56:47;;;;;;;4.17;2.50;;;15.90;99.90;;;;;;5046385;28;20110;-75
2024/02/10 03:59:15;;;;;;;5.90;2.90;;;15.90;99.90;;;;;;5043294;28;20025;-75
2024/02/10 04:01:46;;;;;;;4.90;2.25;;;15.90;99.90;;;;;;5043539;28;20040;-76
2024/02/10 04:04:13;;;;;;;4.57;2.47;;;15.80;99.90;;;;;;5043536;28;20393;-75
2024/02/10 04:06:39;;;;;;;3.70;1.92;;;15.80;99.90;;;;;;5042134;28;20032;-75
2024/02/10 04:09:06;;;;;;;2.70;2.20;;;15.80;99.90;;;;;;5052572;28;20131;-74
2024/02/10 04:11:33;;;;;;;5.00;2.47;;;15.80;99.90;;;;;;5041904;28;20037;-74
2024/02/10 04:14:01;;;;;;;4.47;2.05;;;15.90;99.90;;;;;;5039734;28;20521;-75
2024/02/10 04:16:27;;;;;;;4.47;2.60;;;15.80;99.90;;;;;;5044841;28;20367;-75
2024/02/10 04:18:53;;;;;;;4.83;2.77;;;15.80;99.90;;;;;;5051312;28;20058;-75
2024/02/10 04:21:20;;;;;;;4.20;2.03;;;15.80;99.90;;;;;;5048416;28;20112;-74
2024/02/10 04:23:46;;;;;;;4.57;2.45;;;15.80;99.90;;;;;;5042531;28;20040;-75
2024/02/10 04:26:11;;;;;;;4.15;2.15;;;15.80;99.90;;;;;;5044557;28;20033;-75
2024/02/10 04:28:37;;;;;;;3.73;2.53;;;15.80;99.90;;;;;;5048314;28;20571;-75
2024/02/10 04:31:07;;;;;;;5.40;2.57;;;15.80;99.90;;;;;;5050211;28;20433;-75
2024/02/10 04:33:33;;;;;;;4.22;2.08;;;15.80;99.90;;;;;;5049477;28;20029;-76
2024/02/10 04:35:58;;;;;;;4.37;2.60;;;15.80;99.90;;;;;;5050881;28;20493;-75
2024/02/10 04:38:24;;;;;;;3.40;2.20;;;15.80;99.90;;;;;;5046891;28;20029;-76
2024/02/10 04:40:53;;;;;;;3.67;1.90;;;15.80;99.90;;;;;;5048752;28;20021;-75
2024/02/10 04:43:19;;;;;;;3.70;2.10;;;15.80;99.90;;;;;;5048458;28;20044;-75
2024/02/10 04:45:48;;;;;;;4.13;2.20;;;15.80;99.90;;;;;;5046766;28;20029;-75
2024/02/10 04:48:17;;;;;;;3.55;2.47;;;15.80;99.90;;;;;;5040695;28;20030;-75
2024/02/10 04:50:43;;;;;;;4.63;1.90;;;15.70;99.90;;;;;;5066168;28;20021;-75
2024/02/10 04:53:09;;;;;;;3.30;2.13;;;15.80;99.90;;;;;;5049718;28;20033;-75
2024/02/10 04:55:41;;;;;;;3.40;1.90;;;15.70;99.90;;;;;;5048643;28;20028;-75
2024/02/10 04:58:07;;;;;;;3.40;1.90;;;15.80;99.90;;;;;;5041448;28;20546;-76
2024/02/10 05:00:33;;;;;;;4.00;2.22;;;15.70;99.90;;;;;;5047004;28;20021;-74
2024/02/10 05:03:02;;;;;;;3.10;1.95;;;15.80;99.90;;;;;;5036921;28;20144;-75
2024/02/10 05:05:29;;;;;;;3.85;2.00;;;15.70;99.90;;;;;;5038392;28;20532;-75
2024/02/10 05:07:55;;;;;;;2.25;1.52;;;15.70;99.90;;;;;;5041982;28;20393;-76
2024/02/10 05:10:22;;;;;;;3.45;2.15;;;15.70;99.90;;;;;;5046873;28;20090;-75
2024/02/10 05:12:48;;;;;;;;;;;15.70;99.90;;;;;;5048819;28;20036;-76
2024/02/10 05:15:25;;;;;;;4.10;2.45;;;15.70;99.90;;;;;;5047907;28;20289;-75
2024/02/10 05:17:52;;;;;;;3.50;1.90;;;15.70;99.90;;;;;;5050716;28;20032;-76
2024/02/10 05:20:22;;;;;;;3.42;1.88;;;15.70;99.90;;;;;;5049079;28;20371;-75
2024/02/10 05:22:50;;;;;;;3.17;1.90;;;15.70;99.90;;;;;;5051059;28;20044;-74
2024/02/10 05:25:20;;;;;;;4.25;1.98;;;15.70;99.90;;;;;;5047224;28;20068;-74
2024/02/10 05:27:47;;;;;;;3.63;1.77;;;15.70;99.90;;;;;;5050488;28;20706;-75
2024/02/10 05:30:24;;;;;;;3.92;1.80;;;15.70;99.90;;;;;;5042248;28;20071;-76
2024/02/10 05:32:56;;;;;;;3.03;1.85;;;15.70;99.90;;;;;;5049076;28;20033;-75
2024/02/10 05:35:22;;;;;;;2.92;1.52;;;15.70;99.90;;;;;;5049333;28;20024;-75
2024/02/10 05:37:53;;;;;;;5.32;1.90;;;15.70;99.90;;;;;;5050409;28;20031;-75
2024/02/10 05:40:20;;;;;;;4.85;1.70;;;15.70;99.90;;;;;;5039203;28;20438;-74
2024/02/10 05:42:47;;;;;;;2.80;1.60;;;15.60;99.90;;;;;;5046430;28;20113;-74
2024/02/10 05:45:16;;;;;;;;;;;15.70;99.90;;;;;;5048556;28;20539;-74
2024/02/10 05:47:44;;;;;;;3.45;1.88;;;15.60;99.90;;;;;;5051660;28;19947;-74
2024/02/10 05:50:15;;;;;;;4.85;1.65;;;15.60;99.90;;;;;;5048434;28;20025;-75
2024/02/10 05:52:50;;;;;;;3.45;1.88;;;15.60;99.90;;;;;;5049389;28;20040;-75
2024/02/10 05:55:21;;;;;;;2.53;1.52;;;15.60;99.90;;;;;;5048133;28;20124;-77
2024/02/10 05:57:47;;;;;;;2.97;1.75;;;15.60;99.90;;;;;;5044002;28;20021;-75
2024/02/10 06:00:14;;;;;;;3.42;1.95;;;15.60;99.90;;;;;;5037425;28;20457;-75
2024/02/10 06:02:43;;;;;;;2.55;1.55;;;15.60;99.90;;;;;;5048447;28;20082;-75
2024/02/10 06:05:11;;;;;;;2.47;1.55;;;15.60;99.90;;;;;;5048873;28;20028;-75
2024/02/10 06:07:37;;;;;;;2.30;1.50;;;15.60;99.90;;;;;;5048124;28;20025;-75
2024/02/10 06:10:09;;;;;;;5.60;1.70;;;15.60;99.90;;;;;;5048984;28;20029;-75
2024/02/10 06:12:37;;;;;;;3.58;1.70;;;15.60;99.90;;;;;;5044571;28;20041;-76
2024/02/10 06:15:04;;;;;;;4.25;1.58;;;15.60;99.90;;;;;;5054854;28;20086;-75
2024/02/10 06:17:34;;;;;;;3.03;1.60;;;15.60;99.90;;;;;;5051702;28;20087;-75
2024/02/10 06:20:02;;;;;;;3.38;1.33;;;15.60;99.90;;;;;;5043931;28;20458;-75
2024/02/10 06:22:29;;;;;;;2.70;1.63;;;15.60;99.90;;;;;;5043015;28;20029;-75
2024/02/10 06:24:56;;;;;;;2.67;1.50;;;15.60;99.90;;;;;;5042725;28;20032;-75
2024/02/10 06:27:22;;;;;;;3.08;1.50;;;15.60;99.90;;;;;;5036320;28;20045;-76
2024/02/10 06:29:48;;;;;;;4.63;1.60;;;15.60;99.90;;;;;;5049504;28;20033;-75
2024/02/10 06:32:14;;;;;;;1.80;1.30;;;15.60;99.90;;;;;;5045017;28;20083;-75
2024/02/10 06:34:42;;;;;;;2.50;1.57;;;15.60;99.90;;;;;;5040720;28;20029;-75
2024/02/10 06:37:08;;;;;;;2.38;1.35;;;15.60;99.90;;;;;;5051909;28;20072;-75
2024/02/10 06:39:35;;;;;;;2.67;1.25;;;15.60;99.90;;;;;;5041020;28;20029;-74
2024/02/10 06:42:00;;;;;;;;;;;15.50;99.90;;;;;;5036183;28;20099;-75
2024/02/10 06:44:27;;;;;;;1.60;1.37;;;15.50;99.90;;;;;;5040509;28;20425;-75
2024/02/10 06:46:53;;;;;;;2.63;1.55;;;15.50;99.90;;;;;;5046579;28;20541;-74
2024/02/10 06:49:21;;;;;;;1.97;1.23;;;15.50;99.90;;;;;;5040035;28;20112;-74
2024/02/10 06:51:48;;;;;;;3.72;1.73;;;15.50;99.90;;;;;;5050607;28;20055;-75
2024/02/10 06:54:14;;;;;;;;;;;15.50;99.90;;;;;;5042339;28;20037;-75
2024/02/10 06:56:40;;;;;;;2.83;1.35;;;15.50;99.90;;;;;;5039875;28;19909;-75
2024/02/10 06:59:06;;;;;;;2.25;1.42;;;15.50;99.90;;;;;;5038879;28;20116;-77
2024/02/10 07:01:34;;;;;;;2.03;1.07;;;15.50;99.90;;;;;;5049933;28;20537;-75
2024/02/10 07:04:00;;;;;;;2.25;1.30;;;15.50;99.90;;;;;;5047908;28;20757;-76
2024/02/10 07:06:31;;;;;;;2.93;1.70;;;15.50;99.90;;;;;;5047622;28;20032;-75
2024/02/10 07:09:03;;;;;;;3.45;1.70;;;15.50;99.90;;;;;;5048299;28;20075;-75
2024/02/10 07:11:30;;;;;;;3.05;1.38;;;15.50;99.90;;;;;;5051600;28;20446;-76
2024/02/10 07:13:55;;;;;;;2.65;1.38;;;15.50;99.90;;;;;;5052149;28;20025;-74
2024/02/10 07:16:21;;;;;;;1.73;1.00;;;15.50;99.90;;;;;;5051520;28;20036;-76
2024/02/10 07:18:47;;;;;;;3.37;1.30;;;15.50;99.90;;;;;;5048767;28;20029;-75
2024/02/10 07:21:15;;;;;;;3.30;1.90;;;15.50;99.90;;;;;;5052252;28;20104;-75
2024/02/10 07:23:43;;;;;;;2.25;1.20;;;15.50;99.90;;;;;;5051784;28;20044;-74
2024/02/10 07:26:08;;;;;;;2.15;1.13;;;15.50;99.90;;;;;;5051194;28;20052;-76
2024/02/10 07:28:34;;;;;;;2.80;1.40;;;15.50;99.90;;;;;;5060312;28;20490;-74
2024/02/10 07:31:02;;;;;;;2.03;1.10;;;15.50;99.90;;;;;;5051394;28;20140;-74
2024/02/10 07:33:30;;;;;;;1.83;1.20;;;15.50;99.90;;;;;;5051646;28;20536;-75
2024/02/10 07:36:02;;;;;;;7.90;1.45;;;15.50;99.90;;;;;;5050176;28;20040;-75
2024/02/10 07:38:28;;;;;;;8.52;1.58;;;15.50;99.90;;;;;;5052096;28;20021;-74
2024/02/10 07:40:54;;;;;;;3.67;1.83;;;15.50;99.90;;;;;;5051999;28;20679;-76
2024/02/10 07:43:20;;;;;;;5.03;1.73;;;15.50;99.90;;;;;;5052919;28;20107;-75
2024/02/10 07:45:45;;;;;;;9.60;1.97;;;15.60;99.90;;;;;;5051168;28;20136;-75
2024/02/10 07:48:11;;;;;;;24.13;2.60;;;15.60;99.90;;;;;;5050434;28;20040;-75
2024/02/10 07:50:41;;;;;;;16.70;3.53;;;15.60;99.90;;;;;;5051870;28;20028;-75
2024/02/10 07:53:12;;;;;;;12.93;3.10;;;15.70;99.90;;;;;;5051860;28;20117;-74
2024/02/10 07:55:38;;;;;;;15.35;2.13;;;15.80;99.90;;;;;;5050943;28;20163;-74
2024/02/10 07:58:09;;;;;;;18.03;14.20;;;15.80;99.90;;;;;;5048305;28;20100;-75
2024/02/10 08:00:35;;;;;;;12.15;6.90;;;15.90;99.90;;;;;;5048635;28;20033;-74
2024/02/10 08:03:03;;;;;;;9.30;3.90;;;15.90;99.90;;;;;;5052555;28;20044;-74
2024/02/10 08:05:30;;;;;;;8.15;4.72;;;15.90;99.90;;;;;;5050918;28;20443;-74
2024/02/10 08:08:00;;;;;;;;;;;16.10;99.90;;;;;;5053588;28;20051;-75
2024/02/10 08:10:26;;;;;;;11.85;4.40;;;16.30;99.90;;;;;;5048166;28;19928;-74
2024/02/10 08:12:53;;;;;;;12.10;3.95;;;16.60;99.90;;;;;;5051842;28;20811;-73
2024/02/10 08:15:22;;;;;;;14.00;4.07;;;16.80;99.90;;;;;;5049763;28;20037;-75
2024/02/10 08:17:49;;;;;;;10.75;3.97;;;17.00;99.90;;;;;;5050207;28;20024;-75
2024/02/10 08:20:15;;;;;;;9.88;5.28;;;16.90;99.90;;;;;;5048987;28;20029;-76
2024/02/10 08:22:40;;;;;;;11.95;4.68;;;16.90;99.90;;;;;;5051057;28;20040;-75
2024/02/10 08:25:09;;;;;;;27.17;23.60;;;16.90;99.90;;;;;;5046493;28;20029;-75
2024/02/10 08:27:35;;;;;;;17.95;9.77;;;16.70;99.90;;;;;;5048176;28;20076;-74
2024/02/10 08:30:03;;;;;;;21.27;10.65;;;16.60;99.90;;;;;;5051291;28;20518;-74
2024/02/10 08:32:29;;;;;;;19.27;10.73;;;16.60;99.90;;;;;;5050694;28;20497;-77
2024/02/10 08:34:55;;;;;;;26.20;10.10;;;16.50;99.90;;;;;;5052089;28;20021;-77
2024/02/10 08:37:21;;;;;;;20.13;9.90;;;16.60;99.90;;;;;;5049995;28;20044;-76
2024/02/10 08:39:47;;;;;;;19.10;9.85;;;16.60;99.90;;;;;;5051079;28;20300;-75
2024/02/10 08:42:14;;;;;;;20.27;9.00;;;16.90;99.90;;;;;;5048342;28;20068;-74
2024/02/10 08:44:44;;;;;;;194.27;76.20;;;17.20;99.90;;;;;;5039351;28;20123;-76
2024/02/10 08:47:10;;;;;;;62.30;26.17;;;17.50;99.90;;;;;;5049721;28;20532;-74
2024/02/10 08:49:38;;;;;;;62.63;24.70;;;17.70;99.90;;;;;;5049914;28;20033;-75
2024/02/10 08:52:04;;;;;;;61.67;23.05;;;17.80;99.90;;;;;;5050986;28;20040;-76
2024/02/10 08:54:30;;;;;;;53.15;21.98;;;18.10;99.90;;;;;;5050471;28;20033;-76
2024/02/10 08:57:00;;;;;;;47.33;22.08;;;18.00;99.90;;;;;;5050972;28;20032;-75
2024/02/10 08:59:33;;;;;;;41.25;18.55;;;17.90;99.90;;;;;;5039906;28;20033;-74
2024/02/10 09:02:04;;;;;;;41.15;17.98;;;17.60;99.90;;;;;;5050600;28;20115;-74
2024/02/10 09:04:31;;;;;;;32.03;16.17;;;17.50;99.90;;;;;;5048560;28;20035;-75
2024/02/10 09:07:00;;;;;;;49.85;16.70;;;17.50;99.90;;;;;;5049719;28;20060;-76
2024/02/10 09:09:30;;;;;;;42.92;16.67;;;17.50;99.90;;;;;;5049464;28;20028;-73
2024/02/10 09:11:56;;;;;;;43.70;14.95;;;17.40;99.90;;;;;;5048467;28;20037;-76
2024/02/10 09:14:22;;;;;;;33.25;14.63;;;17.30;99.90;;;;;;5047183;28;20127;-74
2024/02/10 09:16:48;;;;;;;33.70;13.63;;;17.30;99.90;;;;;;5049564;28;20025;-74
2024/02/10 09:19:18;;;;;;;38.27;14.13;;;17.20;99.90;;;;;;5046888;28;20029;-75
2024/02/10 09:21:45;;;;;;;31.25;13.20;;;17.10;99.90;;;;;;5044866;28;20804;-75
2024/02/10 09:24:13;;;;;;;29.10;12.23;;;17.10;99.90;;;;;;5050497;28;20502;-74
2024/02/10 09:26:43;;;;;;;30.83;13.13;;;17.10;99.90;;;;;;5047393;28;20068;-74
2024/02/10 09:29:10;;;;;;;26.20;11.85;;;17.10;99.90;;;;;;5046836;28;20175;-74
2024/02/10 09:31:35;;;;;;;;;;;17.10;99.90;;;;;;5045148;28;20020;-74
2024/02/10 09:34:04;;;;;;;34.22;10.93;;;17.10;99.90;;;;;;5050162;28;19915;-73
2024/02/10 09:36:32;;;;;;;32.40;11.93;;;17.10;99.90;;;;;;5046539;28;20056;-75
2024/02/10 09:38:58;;;;;;;;;;;17.10;99.90;;;;;;5049549;28;20028;-74
2024/02/10 09:41:24;;;;;;;21.92;10.13;;;17.20;99.90;;;;;;5050182;28;19911;-75
2024/02/10 09:43:50;;;;;;;26.33;10.15;;;17.20;99.90;;;;;;5049975;28;20086;-75
2024/02/10 09:46:16;;;;;;;27.97;10.00;;;17.20;99.90;;;;;;5049341;28;20041;-75
2024/02/10 09:48:51;;;;;;;24.05;10.20;;;17.30;99.90;;;;;;5041433;28;20038;-74
2024/02/10 09:51:18;;;;;;;26.05;10.20;;;17.30;99.90;;;;;;5048849;28;20090;-75
2024/02/10 09:53:44;;;;;;;21.50;9.25;;;17.30;99.90;;;;;;5047798;28;20033;-75
2024/02/10 09:56:13;;;;;;;23.92;9.73;;;17.30;99.90;;;;;;5044583;28;20033;-77
2024/02/10 09:58:49;;;;;;;207.23;115.75;;;17.30;99.90;;;;;;5045327;28;20032;-75
2024/02/10 10:01:15;;;;;;;109.22;64.57;;;17.30;99.90;;;;;;5038371;28;20037;-75
2024/02/10 10:03:41;;;;;;;88.85;46.25;;;17.30;99.90;;;;;;5045079;28;20044;-75
2024/02/10 10:06:12;;;;;;;100.93;55.30;;;17.30;99.90;;;;;;5046677;28;20035;-75
2024/02/10 10:08:41;;;;;;;92.82;53.92;;;17.30;99.90;;;;;;5046778;28;20424;-76
2024/02/10 10:11:08;;;;;;;85.75;48.65;;;17.30;99.90;;;;;;5045697;28;20060;-75
2024/02/10 10:13:34;;;;;;;;;;;17.30;99.90;;;;;;5047309;28;20037;-75
2024/02/10 10:16:05;;;;;;;75.40;41.25;;;17.30;99.90;;;;;;5047958;28;19940;-76
2024/02/10 10:18:33;;;;;;;70.72;41.22;;;17.30;99.90;;;;;;5048116;28;20111;-76
2024/02/10 10:21:00;;;;;;;65.43;38.88;;;17.30;99.90;;;;;;5049407;28;20120;-77
2024/02/10 10:23:31;;;;;;;69.22;37.97;;;17.30;99.90;;;;;;5044967;28;20049;-75
2024/02/10 10:25:57;;;;;;;59.22;35.28;;;17.30;99.90;;;;;;5048306;28;20017;-76
2024/02/10 10:28:23;;;;;;;60.42;34.83;;;17.30;99.90;;;;;;5047555;28;20485;-77
2024/02/10 10:30:49;;;;;;;55.37;35.20;;;17.30;99.90;;;;;;5041975;28;20140;-77
2024/02/10 10:33:20;;;;;;;60.58;33.88;;;17.30;99.90;;;;;;5048112;28;20253;-77
2024/02/10 10:35:46;;;;;;;53.15;31.50;;;17.30;99.90;;;;;;5044772;28;20431;-75
2024/02/10 10:38:13;;;;;;;50.00;30.35;;;17.30;99.90;;;;;;5048331;28;20057;-77
2024/02/10 10:40:39;;;;;;;54.40;31.27;;;17.40;99.90;;;;;;5048921;28;20025;-79
2024/02/10 10:43:08;;;;;;;52.70;31.13;;;17.40;99.90;;;;;;5049406;28;20079;-79
2024/02/10 10:45:36;;;;;;;51.85;29.33;;;17.40;99.90;;;;;;5048319;28;20028;-78
2024/02/10 10:48:02;;;;;;;48.80;27.77;;;17.40;99.90;;;;;;5049455;28;20025;-79
2024/02/10 10:50:31;;;;;;;45.92;27.48;;;17.50;99.90;;;;;;5049456;28;20025;-76
2024/02/10 10:53:06;;;;;;;46.17;26.98;;;17.60;99.90;;;;;;5048310;28;20102;-77
2024/02/10 10:55:43;;;;;;;41.55;25.25;;;17.70;99.90;;;;;;5046725;28;20036;-77
2024/02/10 10:58:16;;;;;;;46.20;27.85;;;17.80;99.90;;;;;;5039563;28;20087;-77
2024/02/10 11:00:45;;;;;;;40.47;25.23;;;17.80;99.90;;;;;;5053336;28;20029;-78
2024/02/10 11:03:14;;;;;;;41.20;25.50;;;17.70;99.90;;;;;;5053362;28;20036;-76
2024/02/10 11:05:42;;;;;;;39.97;26.00;;;17.70;99.90;;;;;;5051581;28;20029;-77
2024/02/10 11:08:13;;;;;;;43.67;26.08;;;17.80;99.90;;;;;;5052251;28;20029;-76
2024/02/10 11:10:48;;;;;;;40.88;23.48;;;17.80;99.90;;;;;;5053921;28;20029;-75
2024/02/10 11:13:26;;;;;;;41.88;24.55;;;17.80;99.90;;;;;;5053624;28;20031;-76
2024/02/10 11:16:15;;;;;;;42.35;23.85;;;17.80;99.90;;;;;;5053153;28;20482;-77
2024/02/10 11:18:45;;;;;;;38.17;22.75;;;17.70;99.90;;;;;;5053875;28;20100;-78
2024/02/10 11:21:38;;;;;;;;;;;;;;;;;;;;;
2024/02/10 11:24:43;;;;;;;38.25;21.42;;;17.80;99.90;;;;;;5053718;28;20389;-78
2024/02/10 11:27:02;;;;;;;35.20;21.70;;;17.80;99.90;;;;;;5051967;28;20037;-75
2024/02/10 11:29:27;;;;;;;120.05;48.40;;;17.90;99.90;;;;;;5049561;28;20072;-80
2024/02/10 11:31:56;;;;;;;168.97;63.13;;;17.80;99.90;;;;;;5050930;28;20467;-78
2024/02/10 11:34:22;;;;;;;111.95;45.95;;;17.90;99.90;;;;;;5053471;28;20037;-78
2024/02/10 11:36:53;;;;;;;106.83;44.87;;;17.80;99.90;;;;;;5050980;28;20427;-78
2024/02/10 11:39:20;;;;;;;133.32;56.95;;;17.80;99.90;;;;;;5051427;28;20428;-79
2024/02/10 11:41:48;;;;;;;102.65;46.20;;;17.80;99.90;;;;;;5052097;28;20473;-76
2024/02/10 11:44:17;;;;;;;96.05;45.70;;;17.80;99.90;;;;;;5054072;28;20033;-78
2024/02/10 11:46:44;;;;;;;90.35;42.83;;;17.90;99.90;;;;;;5053078;28;20455;-77
2024/02/10 11:49:11;;;;;;;;;;;17.90;99.90;;;;;;5052862;28;20748;-77
2024/02/10 11:51:37;;;;;;;75.25;34.55;;;17.90;99.90;;;;;;5051973;28;20312;-77
2024/02/10 11:54:03;;;;;;;107.00;62.90;;;17.90;99.90;;;;;;5050674;28;20021;-76
2024/02/10 11:56:33;;;;;;;78.50;38.17;;;17.90;99.90;;;;;;5040528;28;20095;-79
2024/02/10 11:59:00;;;;;;;80.32;36.28;;;17.90;99.90;;;;;;5044352;28;20033;-75
2024/02/10 12:01:30;;;;;;;;;;;17.90;99.90;;;;;;5040266;28;20025;-76
2024/02/10 12:04:05;;;;;;;70.25;35.47;;;17.90;99.90;;;;;;5044169;28;19913;-80
2024/02/10 12:06:31;;;;;;;68.47;33.67;;;17.90;99.90;;;;;;5045614;28;20090;-79
2024/02/10 12:08:58;;;;;;;67.20;33.47;;;17.90;99.90;;;;;;5047066;28;20021;-77
2024/02/10 12:11:26;;;;;;;62.85;31.90;;;17.90;99.90;;;;;;5040100;28;20068;-76
2024/02/10 12:13:53;;;;;;;64.97;29.80;;;17.90;99.90;;;;;;5044816;28;20041;-76
2024/02/10 12:16:22;;;;;;;58.97;29.30;;;17.90;99.90;;;;;;5049365;28;20050;-75
2024/02/10 12:18:48;;;;;;;53.92;29.23;;;18.00;99.90;;;;;;5050039;28;20080;-77
2024/02/10 12:21:24;;;;;;;55.77;28.90;;;18.00;99.90;;;;;;5050420;28;20100;-75
2024/02/10 12:23:50;;;;;;;60.60;28.73;;;18.00;99.90;;;;;;5049854;28;20032;-76
2024/02/10 12:26:17;;;;;;;53.10;27.38;;;18.10;99.90;;;;;;5050570;28;20068;-76
2024/02/10 12:28:44;;;;;;;53.60;28.35;;;18.10;99.90;;;;;;5051242;28;20529;-75
2024/02/10 12:31:09;;;;;;;51.33;26.33;;;18.10;99.90;;;;;;5051580;28;20032;-76
2024/02/10 12:33:35;;;;;;;53.27;26.80;;;18.20;99.90;;;;;;5051016;28;20037;-76
2024/02/10 12:36:01;;;;;;;54.67;26.48;;;18.30;99.90;;;;;;5043959;28;20083;-77
2024/02/10 12:38:27;;;;;;;56.20;26.47;;;18.30;99.90;;;;;;5049665;28;20032;-77
2024/02/10 12:40:54;;;;;;;49.50;24.27;;;18.30;99.90;;;;;;5049253;28;20025;-78
2024/02/10 12:43:21;;;;;;;39.95;21.98;;;18.30;99.90;;;;;;5050912;28;20433;-75
2024/02/10 12:45:47;;;;;;;43.67;24.33;;;18.30;99.90;;;;;;5047834;28;20059;-77